Time;durP1;ratioP1;P1;durP2;ratioP2;P2;SDS_P1;SDS_P2;PMS_P1;PMS_P2;Temp;Humidity;BMP_temperature;BMP_pressure;BME280_temperature;BME280_humidity;BME280_pressure;Samples;Min_cycle;Max_cycle;Signal;HPM_P1;HPM_P2
2021/01/23 00:03:04;;;;;;;3.00;2.70;;;16.90;33.50;;;;;;8399812;28;20043;-55
2021/01/23 00:07:04;;;;;;;3.67;2.88;;;16.90;33.40;;;;;;8393189;28;20098;-54
2021/01/23 00:11:05;;;;;;;3.90;2.60;;;16.90;33.50;;;;;;8413390;28;20055;-55
2021/01/23 00:15:08;;;;;;;2.63;2.20;;;16.90;33.50;;;;;;8417205;28;20481;-55
2021/01/23 00:19:08;;;;;;;2.50;1.92;;;16.90;33.50;;;;;;8393655;28;20558;-55
2021/01/23 00:23:09;;;;;;;4.07;2.10;;;16.90;33.60;;;;;;8395396;28;20029;-55
2021/01/23 00:27:09;;;;;;;3.57;2.50;;;16.80;33.40;;;;;;8392709;28;20036;-55
2021/01/23 00:31:10;;;;;;;4.60;2.40;;;16.80;33.40;;;;;;8391448;28;20040;-55
2021/01/23 00:35:13;;;;;;;2.93;2.17;;;16.80;33.30;;;;;;8395677;28;20036;-55
2021/01/23 00:39:13;;;;;;;2.67;1.98;;;16.90;33.50;;;;;;8430644;28;20036;-55
2021/01/23 00:43:14;;;;;;;2.73;2.30;;;16.80;33.30;;;;;;8396700;28;20040;-55
2021/01/23 00:47:14;;;;;;;2.70;1.97;;;16.80;33.50;;;;;;8392342;28;20043;-55
2021/01/23 00:51:15;;;;;;;2.90;2.30;;;16.80;33.40;;;;;;8391840;28;20041;-55
2021/01/23 00:55:16;;;;;;;2.67;2.10;;;16.80;33.40;;;;;;8395006;28;20595;-55
2021/01/23 00:59:17;;;;;;;3.00;1.90;;;16.80;33.40;;;;;;8392120;28;20044;-55
2021/01/23 01:03:17;;;;;;;2.83;1.97;;;16.80;33.30;;;;;;8391996;28;20037;-55
2021/01/23 01:07:17;;;;;;;3.20;2.10;;;16.80;33.30;;;;;;8390504;28;20038;-55
2021/01/23 01:11:18;;;;;;;2.70;1.90;;;16.80;33.40;;;;;;8392146;28;20059;-55
2021/01/23 01:15:19;;;;;;;2.47;1.80;;;16.80;33.30;;;;;;8396046;28;20037;-55
2021/01/23 01:19:19;;;;;;;2.10;1.77;;;16.80;33.20;;;;;;8414335;28;20477;-55
2021/01/23 01:23:19;;;;;;;2.37;1.70;;;16.80;33.20;;;;;;8410086;28;20058;-55
2021/01/23 01:27:20;;;;;;;2.00;1.80;;;16.80;33.30;;;;;;8391104;28;20123;-55
2021/01/23 01:31:21;;;;;;;2.53;1.80;;;16.80;33.20;;;;;;8393919;28;20055;-55
2021/01/23 01:35:21;;;;;;;2.13;1.70;;;16.80;33.30;;;;;;8391246;28;20500;-55
2021/01/23 01:39:22;;;;;;;2.10;1.90;;;16.80;33.30;;;;;;8390470;28;20440;-55
2021/01/23 01:43:23;;;;;;;2.57;1.97;;;16.80;33.30;;;;;;8389309;28;20025;-56
2021/01/23 01:47:23;;;;;;;2.53;1.90;;;16.80;33.30;;;;;;8395401;28;20500;-56
2021/01/23 01:51:24;;;;;;;2.47;1.80;;;16.80;33.30;;;;;;8391257;28;20053;-55
2021/01/23 01:55:31;;;;;;;1.90;1.70;;;16.80;33.10;;;;;;8389837;28;20033;-56
2021/01/23 01:59:32;;;;;;;2.00;1.50;;;16.80;33.30;;;;;;8391084;28;20025;-55
2021/01/23 02:03:53;;;;;;;2.07;1.50;;;16.80;33.20;;;;;;8390849;28;20029;-55
2021/01/23 02:07:59;;;;;;;1.40;1.30;;;16.70;33.10;;;;;;8394314;28;20040;-56
2021/01/23 02:12:22;;;;;;;2.38;1.58;;;16.80;33.20;;;;;;8390539;28;20037;-55
2021/01/23 02:16:29;;;;;;;2.38;1.60;;;16.80;33.20;;;;;;8389159;28;20029;-55
2021/01/23 02:21:00;;;;;;;3.08;2.05;;;16.80;33.20;;;;;;8390693;28;20036;-56
2021/01/23 02:25:03;;;;;;;2.07;1.40;;;16.80;33.10;;;;;;8388680;28;20048;-56
2021/01/23 02:29:10;;;;;;;2.55;1.42;;;16.80;33.20;;;;;;8394849;28;20409;-55
2021/01/23 02:33:12;;;;;;;2.17;1.40;;;16.70;33.10;;;;;;8392370;28;20056;-55
2021/01/23 02:37:14;;;;;;;1.52;1.42;;;16.80;33.10;;;;;;8388439;28;20421;-55
2021/01/23 02:41:15;;;;;;;1.95;1.27;;;16.70;33.00;;;;;;8390201;28;20051;-55
2021/01/23 02:45:16;;;;;;;2.00;1.20;;;16.70;33.10;;;;;;8390124;27;20059;-55
2021/01/23 02:49:17;;;;;;;2.20;1.40;;;16.70;33.00;;;;;;8392875;28;20462;-55
2021/01/23 02:53:20;;;;;;;2.17;1.53;;;16.70;33.10;;;;;;8421444;28;20043;-55
2021/01/23 02:57:22;;;;;;;1.38;1.20;;;16.70;33.10;;;;;;8411134;28;20440;-55
2021/01/23 03:01:25;;;;;;;;;;;16.70;33.00;;;;;;8394719;28;20086;-55
2021/01/23 03:05:28;;;;;;;1.52;1.30;;;16.70;33.10;;;;;;8400085;28;19916;-55
2021/01/23 03:09:29;;;;;;;1.40;1.20;;;16.70;33.10;;;;;;8395580;28;20040;-55
2021/01/23 03:13:29;;;;;;;1.30;1.20;;;16.70;33.00;;;;;;8393921;27;20025;-54
2021/01/23 03:17:30;;;;;;;2.50;1.53;;;16.70;33.10;;;;;;8396133;28;20032;-55
2021/01/23 03:21:30;;;;;;;2.00;1.50;;;16.70;33.10;;;;;;8396120;28;20044;-55
2021/01/23 03:25:31;;;;;;;1.57;1.40;;;16.70;33.10;;;;;;8397912;28;20078;-55
2021/01/23 03:29:32;;;;;;;1.77;1.30;;;16.70;33.00;;;;;;8395380;28;20044;-55
2021/01/23 03:33:32;;;;;;;1.73;1.13;;;16.70;33.10;;;;;;8395214;28;20489;-55
2021/01/23 03:37:33;;;;;;;2.13;1.23;;;16.70;33.10;;;;;;8393017;28;20025;-55
2021/01/23 03:41:34;;;;;;;2.80;1.40;;;16.70;33.10;;;;;;8398935;28;20035;-55
2021/01/23 03:45:34;;;;;;;1.70;1.40;;;16.70;33.10;;;;;;8424708;28;20507;-55
2021/01/23 03:49:35;;;;;;;1.97;1.43;;;16.70;33.10;;;;;;8406037;27;20151;-55
2021/01/23 03:53:35;;;;;;;1.33;1.20;;;16.70;33.00;;;;;;8403887;28;20064;-55
2021/01/23 03:57:36;;;;;;;1.57;1.10;;;16.70;33.10;;;;;;8429304;28;20020;-55
2021/01/23 04:01:36;;;;;;;1.30;1.20;;;16.70;33.10;;;;;;8396191;28;20094;-56
2021/01/23 04:05:37;;;;;;;1.90;1.50;;;16.70;33.10;;;;;;8393679;28;20090;-55
2021/01/23 04:09:37;;;;;;;1.40;1.20;;;16.70;33.00;;;;;;8407396;28;20048;-56
2021/01/23 04:13:38;;;;;;;1.60;1.50;;;16.70;33.20;;;;;;8421788;28;20375;-55
2021/01/23 04:17:38;;;;;;;1.80;1.20;;;16.70;33.20;;;;;;8397958;28;20025;-56
2021/01/23 04:21:39;;;;;;;1.53;1.10;;;16.70;33.20;;;;;;8393476;28;20036;-55
2021/01/23 04:25:39;;;;;;;1.50;1.10;;;16.70;33.30;;;;;;8391680;27;20035;-55
2021/01/23 04:29:41;;;;;;;1.33;1.20;;;16.70;33.30;;;;;;8393227;28;20028;-55
2021/01/23 04:33:41;;;;;;;1.33;1.23;;;16.70;33.30;;;;;;8397401;28;20036;-55
2021/01/23 04:37:42;;;;;;;1.30;1.20;;;16.70;33.40;;;;;;8391663;27;20075;-55
2021/01/23 04:41:42;;;;;;;1.20;1.03;;;16.70;33.40;;;;;;8393230;28;20512;-55
2021/01/23 04:45:43;;;;;;;1.70;1.17;;;16.80;33.30;;;;;;8392545;28;20028;-55
2021/01/23 04:49:43;;;;;;;1.30;0.93;;;16.80;33.30;;;;;;8391247;28;20111;-56
2021/01/23 04:53:45;;;;;;;1.37;1.10;;;16.80;33.60;;;;;;8396630;28;20100;-55
2021/01/23 04:57:46;;;;;;;1.83;1.42;;;16.80;33.50;;;;;;8392658;28;20040;-55
2021/01/23 05:02:11;;;;;;;1.30;1.20;;;16.80;33.40;;;;;;8391124;28;20040;-55
2021/01/23 05:06:12;;;;;;;1.50;1.25;;;16.80;33.50;;;;;;8391812;28;20045;-54
2021/01/23 05:10:23;;;;;;;1.10;1.00;;;16.80;33.40;;;;;;8394781;28;20047;-55
2021/01/23 05:14:23;;;;;;;1.27;1.15;;;16.90;33.50;;;;;;8393715;28;20040;-56
2021/01/23 05:18:24;;;;;;;1.93;1.30;;;16.80;33.30;;;;;;8391948;28;20393;-55
2021/01/23 05:22:24;;;;;;;1.50;1.00;;;16.90;33.40;;;;;;8390416;28;20032;-55
2021/01/23 05:26:25;;;;;;;1.30;1.20;;;16.90;33.40;;;;;;8392015;28;20068;-56
2021/01/23 05:30:45;;;;;;;1.37;1.27;;;16.90;33.20;;;;;;8395625;28;20390;-56
2021/01/23 05:34:46;;;;;;;1.00;0.90;;;16.90;33.20;;;;;;8389770;28;20037;-55
2021/01/23 05:38:48;;;;;;;1.33;0.90;;;16.80;33.20;;;;;;8391211;28;20634;-55
2021/01/23 05:42:48;;;;;;;2.00;1.10;;;16.80;33.20;;;;;;8400499;28;20032;-55
2021/01/23 05:46:49;;;;;;;2.00;1.20;;;16.80;33.20;;;;;;8424977;28;20043;-55
2021/01/23 05:50:51;;;;;;;1.73;1.20;;;16.80;33.10;;;;;;8394715;28;20501;-55
2021/01/23 05:54:51;;;;;;;2.50;1.00;;;16.70;33.00;;;;;;8389477;28;20033;-55
2021/01/23 05:58:52;;;;;;;3.03;1.10;;;16.70;33.10;;;;;;8391094;28;20486;-55
2021/01/23 06:02:53;;;;;;;1.07;0.90;;;16.80;33.10;;;;;;8391388;28;20028;-55
2021/01/23 06:06:56;;;;;;;1.45;1.10;;;16.70;33.00;;;;;;8393286;28;20037;-54
2021/01/23 06:10:56;;;;;;;1.88;1.20;;;16.70;33.00;;;;;;8391147;27;20129;-54
2021/01/23 06:14:57;;;;;;;2.77;1.10;;;16.70;33.00;;;;;;8390917;28;20043;-55
2021/01/23 06:19:00;;;;;;;1.60;0.90;;;16.70;33.00;;;;;;8396462;28;20029;-56
2021/01/23 06:23:01;;;;;;;1.00;0.90;;;16.70;33.00;;;;;;8428234;28;20040;-55
2021/01/23 06:27:02;;;;;;;1.40;1.13;;;16.70;33.20;;;;;;8394160;28;20127;-54
2021/01/23 06:31:22;;;;;;;2.10;1.67;;;16.70;33.40;;;;;;8395160;28;20036;-54
2021/01/23 06:35:23;;;;;;;1.25;0.85;;;16.70;33.60;;;;;;8396356;28;20429;-55
2021/01/23 06:39:24;;;;;;;1.50;1.10;;;16.70;33.40;;;;;;8396498;28;20033;-55
2021/01/23 06:43:24;;;;;;;0.90;0.80;;;16.70;33.50;;;;;;8399109;27;20025;-55
2021/01/23 06:47:25;;;;;;;1.33;1.03;;;16.70;33.50;;;;;;8396523;28;20032;-55
2021/01/23 06:51:25;;;;;;;1.20;1.00;;;16.80;33.50;;;;;;8414206;28;20040;-55
2021/01/23 06:55:44;;;;;;;1.00;0.90;;;16.80;33.40;;;;;;8419353;28;20416;-55
2021/01/23 06:59:48;;;;;;;2.00;1.13;;;16.80;33.40;;;;;;8396456;28;20436;-55
2021/01/23 07:03:48;;;;;;;1.50;1.00;;;16.90;33.40;;;;;;8433598;28;20073;-55
2021/01/23 07:07:49;;;;;;;1.07;0.90;;;16.90;33.40;;;;;;8402577;27;20489;-55
2021/01/23 07:11:50;;;;;;;1.17;1.00;;;16.90;33.40;;;;;;8409857;28;20051;-55
2021/01/23 07:15:50;;;;;;;1.30;1.07;;;16.90;33.30;;;;;;8426259;28;20064;-53
2021/01/23 07:19:51;;;;;;;1.30;1.00;;;16.90;33.30;;;;;;8433254;28;20064;-54
2021/01/23 07:23:56;;;;;;;1.87;1.07;;;16.90;33.20;;;;;;8399583;28;20036;-54
2021/01/23 07:27:56;;;;;;;1.40;1.10;;;16.90;33.20;;;;;;8393492;28;20459;-54
2021/01/23 07:31:57;;;;;;;1.50;1.40;;;16.80;33.00;;;;;;8395419;28;20086;-54
2021/01/23 07:35:58;;;;;;;1.10;1.00;;;16.90;33.10;;;;;;8399366;28;20059;-54
2021/01/23 07:39:59;;;;;;;1.83;1.20;;;16.80;33.00;;;;;;8393030;28;20043;-55
2021/01/23 07:44:01;;;;;;;1.20;1.10;;;16.80;33.00;;;;;;8394717;28;20068;-55
2021/01/23 07:48:07;;;;;;;1.20;1.00;;;16.80;33.00;;;;;;8394256;28;20037;-54
2021/01/23 07:52:08;;;;;;;1.45;1.10;;;16.80;33.10;;;;;;8392450;28;20098;-55
2021/01/23 07:56:14;;;;;;;;;;;16.70;32.90;;;;;;8398727;28;20482;-55
2021/01/23 08:00:22;;;;;;;1.50;1.20;;;16.70;33.00;;;;;;8421950;28;19912;-55
2021/01/23 08:04:32;;;;;;;1.40;1.20;;;16.70;33.00;;;;;;8405996;28;20052;-56
2021/01/23 08:08:36;;;;;;;1.30;0.90;;;16.70;33.00;;;;;;8394048;28;20036;-56
2021/01/23 08:12:38;;;;;;;1.65;1.02;;;16.70;33.00;;;;;;8393695;28;20048;-56
2021/01/23 08:16:54;;;;;;;1.20;1.10;;;16.70;33.10;;;;;;8396007;28;20039;-56
2021/01/23 08:20:55;;;;;;;1.90;1.30;;;16.70;33.20;;;;;;8393146;28;20033;-56
2021/01/23 08:24:55;;;;;;;1.30;1.13;;;16.70;33.30;;;;;;8390946;28;20066;-55
2021/01/23 08:28:56;;;;;;;2.03;1.27;;;16.70;33.30;;;;;;8392823;28;20040;-55
2021/01/23 08:32:57;;;;;;;1.70;1.13;;;16.70;33.40;;;;;;8397356;28;20044;-56
2021/01/23 08:36:57;;;;;;;1.63;1.37;;;16.70;33.40;;;;;;8390508;28;20382;-56
2021/01/23 08:40:58;;;;;;;2.50;1.37;;;16.80;33.50;;;;;;8392839;28;20071;-55
2021/01/23 08:44:58;;;;;;;1.57;1.27;;;16.80;33.40;;;;;;8392317;28;20050;-56
2021/01/23 08:49:00;;;;;;;1.83;1.30;;;16.80;33.40;;;;;;8391012;28;20033;-56
2021/01/23 08:53:00;;;;;;;2.03;1.30;;;16.90;33.30;;;;;;8430238;28;20055;-55
2021/01/23 08:57:01;;;;;;;1.83;1.50;;;16.90;33.40;;;;;;8425074;28;20496;-56
2021/01/23 09:01:02;;;;;;;1.80;1.42;;;16.90;33.30;;;;;;8408782;28;20044;-55
2021/01/23 09:05:04;;;;;;;1.97;1.33;;;16.90;33.40;;;;;;8392083;28;20033;-55
2021/01/23 09:09:05;;;;;;;1.05;1.00;;;16.90;33.20;;;;;;8396140;28;20035;-56
2021/01/23 09:13:06;;;;;;;1.80;1.25;;;16.90;33.20;;;;;;8417855;28;20048;-56
2021/01/23 09:17:07;;;;;;;1.75;1.58;;;16.90;33.20;;;;;;8406093;28;20029;-55
2021/01/23 09:21:08;;;;;;;1.30;1.20;;;16.90;33.00;;;;;;8391112;28;20063;-55
2021/01/23 09:25:09;;;;;;;3.00;1.20;;;16.90;33.00;;;;;;8394344;28;20059;-55
2021/01/23 09:29:09;;;;;;;1.42;1.33;;;16.90;32.90;;;;;;8391388;28;20036;-55
2021/01/23 09:33:10;;;;;;;1.90;1.57;;;16.90;33.10;;;;;;8391697;27;20086;-55
2021/01/23 09:37:11;;;;;;;1.83;1.50;;;16.90;32.90;;;;;;8390334;28;20064;-55
2021/01/23 09:41:11;;;;;;;2.07;1.40;;;16.90;32.90;;;;;;8391281;28;20392;-55
2021/01/23 09:45:12;;;;;;;2.17;1.53;;;16.80;32.80;;;;;;8395211;28;20037;-54
2021/01/23 09:49:13;;;;;;;2.17;1.57;;;16.80;32.80;;;;;;8389979;28;20059;-55
2021/01/23 09:53:13;;;;;;;1.53;1.37;;;16.80;32.80;;;;;;8390718;28;20082;-55
2021/01/23 09:57:14;;;;;;;2.73;1.90;;;16.80;32.80;;;;;;8391206;28;20436;-55
2021/01/23 10:01:16;;;;;;;2.93;1.97;;;16.80;32.80;;;;;;8394907;28;20025;-55
2021/01/23 10:05:16;;;;;;;3.38;1.58;;;16.80;32.80;;;;;;8427569;28;20036;-55
2021/01/23 10:09:17;;;;;;;2.30;1.60;;;16.70;32.70;;;;;;8410516;28;20047;-54
2021/01/23 10:13:18;;;;;;;3.65;1.70;;;16.70;33.00;;;;;;8395780;28;20469;-55
2021/01/23 10:17:18;;;;;;;1.50;1.33;;;16.80;33.30;;;;;;8398448;28;20036;-55
2021/01/23 10:21:19;;;;;;;2.47;1.77;;;16.80;33.30;;;;;;8400587;28;20033;-55
2021/01/23 10:25:20;;;;;;;1.83;1.57;;;16.80;33.30;;;;;;8395445;28;20039;-55
2021/01/23 10:29:20;;;;;;;2.00;1.52;;;16.80;33.30;;;;;;8397024;28;20115;-55
2021/01/23 10:33:21;;;;;;;2.83;2.07;;;16.80;33.30;;;;;;8396781;28;20029;-55
2021/01/23 10:37:22;;;;;;;2.13;1.77;;;16.90;33.30;;;;;;8399384;28;20055;-55
2021/01/23 10:41:22;;;;;;;1.83;1.43;;;16.90;33.20;;;;;;8424138;28;20091;-55
2021/01/23 10:45:23;;;;;;;2.57;1.97;;;16.90;33.30;;;;;;8411980;28;20036;-55
2021/01/23 10:49:23;;;;;;;3.10;1.50;;;17.00;33.30;;;;;;8394870;28;20037;-55
2021/01/23 10:53:24;;;;;;;3.33;2.10;;;17.00;33.10;;;;;;8400604;28;20025;-55
2021/01/23 10:57:24;;;;;;;2.10;1.70;;;17.00;33.20;;;;;;8396360;28;20032;-55
2021/01/23 11:01:25;;;;;;;2.97;1.70;;;17.10;33.10;;;;;;8395271;28;20032;-55
2021/01/23 11:05:25;;;;;;;1.97;1.30;;;17.10;33.10;;;;;;8395778;28;20047;-55
2021/01/23 11:09:26;;;;;;;1.67;1.50;;;17.10;33.10;;;;;;8395649;28;20489;-55
2021/01/23 11:13:26;;;;;;;2.03;1.60;;;17.10;33.10;;;;;;8397874;28;20056;-55
2021/01/23 11:17:27;;;;;;;2.13;1.80;;;17.10;33.20;;;;;;8395714;28;20036;-55
2021/01/23 11:21:27;;;;;;;1.97;1.53;;;17.20;33.20;;;;;;8395217;28;20051;-55
2021/01/23 11:25:28;;;;;;;1.93;1.70;;;17.20;33.10;;;;;;8393412;28;20048;-55
2021/01/23 11:29:28;;;;;;;3.17;1.80;;;17.10;33.00;;;;;;8399622;28;20052;-55
2021/01/23 11:33:29;;;;;;;2.43;1.47;;;17.20;33.10;;;;;;8395181;28;20124;-56
2021/01/23 11:37:29;;;;;;;1.73;1.57;;;17.10;33.00;;;;;;8393335;28;20074;-55
2021/01/23 11:41:30;;;;;;;2.23;1.60;;;17.20;33.00;;;;;;8395070;28;20028;-55
2021/01/23 11:45:30;;;;;;;1.50;1.40;;;17.10;33.00;;;;;;8398967;28;20120;-55
2021/01/23 11:49:31;;;;;;;1.90;1.50;;;17.10;32.90;;;;;;8393107;28;20033;-55
2021/01/23 11:53:32;;;;;;;1.73;1.60;;;17.10;32.80;;;;;;8394602;28;20033;-55
2021/01/23 11:57:33;;;;;;;2.53;1.87;;;17.10;32.70;;;;;;8394490;27;20028;-55
2021/01/23 12:01:34;;;;;;;1.65;1.45;;;17.10;32.60;;;;;;8392523;28;20033;-55
2021/01/23 12:05:34;;;;;;;3.73;1.80;;;17.10;32.60;;;;;;8398643;28;20048;-55
2021/01/23 12:09:35;;;;;;;2.03;1.57;;;17.10;32.60;;;;;;8394005;28;20063;-55
2021/01/23 12:13:35;;;;;;;2.47;1.47;;;17.10;32.50;;;;;;8407708;27;20078;-55
2021/01/23 12:17:36;;;;;;;2.50;1.80;;;17.00;32.50;;;;;;8421117;28;20025;-55
2021/01/23 12:21:37;;;;;;;2.83;1.50;;;17.00;32.50;;;;;;8397803;28;20119;-55
2021/01/23 12:25:37;;;;;;;1.67;1.47;;;17.00;32.60;;;;;;8420243;28;20024;-55
2021/01/23 12:29:38;;;;;;;2.80;1.60;;;17.00;32.50;;;;;;8406851;28;20577;-55
2021/01/23 12:33:38;;;;;;;2.10;1.57;;;17.00;32.60;;;;;;8393237;27;20060;-55
2021/01/23 12:37:41;;;;;;;1.80;1.33;;;17.00;32.60;;;;;;8395484;28;20024;-55
2021/01/23 12:41:42;;;;;;;2.45;1.55;;;17.00;32.60;;;;;;8394492;28;20516;-55
2021/01/23 12:45:42;;;;;;;2.03;1.50;;;17.00;33.00;;;;;;8392222;28;20025;-55
2021/01/23 12:49:43;;;;;;;1.73;1.50;;;17.00;33.10;;;;;;8391343;28;20094;-56
2021/01/23 12:53:44;;;;;;;2.03;1.50;;;17.00;33.10;;;;;;8392036;28;20119;-55
2021/01/23 12:57:45;;;;;;;2.03;1.50;;;17.00;33.00;;;;;;8396349;28;20106;-55
2021/01/23 13:01:45;;;;;;;2.17;1.40;;;17.00;33.10;;;;;;8390195;28;20032;-55
2021/01/23 13:05:46;;;;;;;2.67;1.63;;;17.10;33.10;;;;;;8392254;28;20047;-55
2021/01/23 13:09:46;;;;;;;2.00;1.50;;;17.10;33.20;;;;;;8391528;28;20123;-55
2021/01/23 13:13:49;;;;;;;1.97;1.40;;;17.10;33.20;;;;;;8394352;28;20497;-55
2021/01/23 13:17:50;;;;;;;1.88;1.40;;;17.10;33.20;;;;;;8391680;28;20056;-54
2021/01/23 13:21:51;;;;;;;1.77;1.30;;;17.10;33.10;;;;;;8389898;28;20375;-54
2021/01/23 13:25:51;;;;;;;3.05;1.65;;;17.20;33.70;;;;;;8391585;28;20036;-55
2021/01/23 13:29:52;;;;;;;3.93;1.83;;;17.20;33.10;;;;;;8391340;28;20128;-55
2021/01/23 13:33:54;;;;;;;3.30;1.97;;;17.20;33.00;;;;;;8394244;28;20363;-55
2021/01/23 13:37:54;;;;;;;2.00;1.25;;;17.20;33.00;;;;;;8391870;28;20115;-54
2021/01/23 13:41:56;;;;;;;1.70;1.50;;;17.20;33.00;;;;;;8391983;28;20436;-55
2021/01/23 13:45:57;;;;;;;2.20;1.30;;;17.20;32.90;;;;;;8389593;28;20033;-55
2021/01/23 13:49:57;;;;;;;2.53;1.47;;;17.20;33.00;;;;;;8395494;28;20406;-55
2021/01/23 13:53:58;;;;;;;1.87;1.57;;;17.20;32.70;;;;;;8391143;28;20093;-55
2021/01/23 13:57:58;;;;;;;3.83;1.67;;;17.20;32.60;;;;;;8389321;28;20040;-55
2021/01/23 14:01:59;;;;;;;2.23;1.40;;;17.10;33.20;;;;;;8391235;28;20083;-55
2021/01/23 14:05:59;;;;;;;1.70;1.07;;;17.10;32.60;;;;;;8395305;28;20043;-55
2021/01/23 14:10:00;;;;;;;1.50;1.40;;;17.10;32.60;;;;;;8388576;28;20068;-55
2021/01/23 14:14:00;;;;;;;2.40;1.43;;;17.10;32.60;;;;;;8390756;28;20446;-55
2021/01/23 14:18:01;;;;;;;3.17;1.83;;;17.10;32.60;;;;;;8390419;28;20036;-55
2021/01/23 14:22:02;;;;;;;2.70;1.90;;;17.10;32.60;;;;;;8389422;28;20032;-55
2021/01/23 14:26:02;;;;;;;2.00;1.80;;;17.00;32.60;;;;;;8394752;28;20086;-55
2021/01/23 14:30:04;;;;;;;1.93;1.40;;;17.00;32.60;;;;;;8390657;28;20041;-55
2021/01/23 14:34:05;;;;;;;2.05;1.85;;;17.00;32.60;;;;;;8389298;28;20033;-55
2021/01/23 14:38:05;;;;;;;1.60;1.50;;;17.00;32.60;;;;;;8390170;28;20162;-55
2021/01/23 14:42:07;;;;;;;2.47;1.63;;;16.90;32.70;;;;;;8394699;28;20033;-55
2021/01/23 14:46:07;;;;;;;2.03;1.38;;;16.90;32.60;;;;;;8417928;28;20028;-55
2021/01/23 14:50:09;;;;;;;1.23;1.13;;;16.90;32.60;;;;;;8427103;28;20128;-55
2021/01/23 14:54:09;;;;;;;2.35;1.40;;;16.90;32.60;;;;;;8418749;28;20040;-55
2021/01/23 14:58:10;;;;;;;1.67;1.43;;;16.90;32.70;;;;;;8395858;28;20115;-54
2021/01/23 15:02:10;;;;;;;2.30;1.53;;;16.90;32.90;;;;;;8399398;28;20029;-55
2021/01/23 15:06:11;;;;;;;1.77;1.13;;;16.90;32.90;;;;;;8396160;28;20127;-55
2021/01/23 15:10:12;;;;;;;3.03;1.43;;;16.90;33.00;;;;;;8393826;28;20424;-55
2021/01/23 15:14:13;;;;;;;1.63;1.13;;;16.90;32.70;;;;;;8395272;28;20119;-54
2021/01/23 15:18:13;;;;;;;3.07;1.50;;;16.80;33.00;;;;;;8399740;28;20440;-55
2021/01/23 15:22:15;;;;;;;3.73;1.40;;;16.90;33.10;;;;;;8393841;28;20032;-55
2021/01/23 15:26:16;;;;;;;2.10;1.00;;;16.80;33.00;;;;;;8395430;28;20035;-55
2021/01/23 15:30:17;;;;;;;1.73;1.30;;;16.90;33.10;;;;;;8394983;28;20391;-54
2021/01/23 15:34:17;;;;;;;3.10;1.17;;;16.90;33.00;;;;;;8397869;28;20028;-54
2021/01/23 15:38:18;;;;;;;2.90;1.30;;;16.90;33.10;;;;;;8394828;28;20029;-55
2021/01/23 15:42:18;;;;;;;1.67;1.10;;;16.90;33.10;;;;;;8394568;28;20033;-54
2021/01/23 15:46:19;;;;;;;1.50;1.13;;;16.90;33.10;;;;;;8392974;28;20075;-54
2021/01/23 15:50:19;;;;;;;2.73;1.40;;;16.90;33.10;;;;;;8394255;28;20064;-55
2021/01/23 15:54:20;;;;;;;1.43;1.10;;;16.90;33.10;;;;;;8398863;28;20039;-54
2021/01/23 15:58:21;;;;;;;1.15;1.05;;;16.90;33.10;;;;;;8391444;28;20473;-55
2021/01/23 16:02:21;;;;;;;1.70;1.20;;;17.00;33.10;;;;;;8394156;28;20090;-54
2021/01/23 16:06:22;;;;;;;3.47;1.40;;;16.90;33.00;;;;;;8393592;28;20044;-54
2021/01/23 16:10:23;;;;;;;3.03;1.07;;;16.90;33.10;;;;;;8394822;28;20055;-55
2021/01/23 16:14:23;;;;;;;1.77;1.50;;;17.00;32.90;;;;;;8393951;28;20040;-55
2021/01/23 16:18:24;;;;;;;1.23;1.10;;;16.90;32.90;;;;;;8393655;28;20055;-55
2021/01/23 16:22:24;;;;;;;2.23;1.50;;;17.00;32.90;;;;;;8387699;28;20040;-49
2021/01/23 16:26:25;;;;;;;1.37;1.27;;;16.90;32.70;;;;;;8377122;28;20462;-49
2021/01/23 16:30:26;;;;;;;3.60;1.37;;;16.90;32.70;;;;;;8392135;28;20078;-56
2021/01/23 16:34:27;;;;;;;3.00;1.83;;;16.90;32.80;;;;;;8391711;28;20086;-49
2021/01/23 16:38:28;;;;;;;1.93;1.57;;;16.90;32.70;;;;;;8392773;28;20448;-55
2021/01/23 16:42:29;;;;;;;2.95;1.50;;;16.90;32.70;;;;;;8381448;28;20044;-50
2021/01/23 16:46:30;;;;;;;3.43;1.97;;;16.90;33.20;;;;;;8395144;28;20028;-51
2021/01/23 16:50:30;;;;;;;1.48;1.27;;;16.90;32.60;;;;;;8391071;28;20397;-54
2021/01/23 16:54:31;;;;;;;2.63;1.60;;;16.80;32.60;;;;;;8392108;28;20051;-51
2021/01/23 16:58:33;;;;;;;2.03;1.33;;;16.80;32.60;;;;;;8389518;28;20033;-52
2021/01/23 17:02:33;;;;;;;2.40;1.58;;;16.80;32.60;;;;;;8396284;28;20028;-53
2021/01/23 17:06:34;;;;;;;2.47;1.70;;;16.80;32.70;;;;;;8422400;28;20040;-53
2021/01/23 17:10:34;;;;;;;2.27;1.70;;;16.80;32.60;;;;;;8399929;27;20040;-53
2021/01/23 17:14:36;;;;;;;2.43;1.70;;;16.80;33.20;;;;;;8400779;28;20411;-53
2021/01/23 17:18:36;;;;;;;2.45;1.50;;;16.80;32.70;;;;;;8423938;27;20370;-53
2021/01/23 17:22:39;;;;;;;1.83;1.33;;;16.70;32.70;;;;;;8393278;28;20060;-56
2021/01/23 17:26:39;;;;;;;1.85;1.35;;;16.80;32.80;;;;;;8391211;27;20035;-54
2021/01/23 17:30:40;;;;;;;1.50;1.40;;;16.70;33.00;;;;;;8387697;28;20132;-53
2021/01/23 17:34:41;;;;;;;3.10;1.47;;;16.80;33.20;;;;;;8361708;27;20111;-53
2021/01/23 17:38:42;;;;;;;2.22;1.73;;;16.80;33.10;;;;;;8395380;28;20029;-54
2021/01/23 17:42:42;;;;;;;1.97;1.50;;;16.80;33.20;;;;;;8390838;28;20370;-54
2021/01/23 17:46:43;;;;;;;1.70;1.43;;;16.90;33.30;;;;;;8370736;28;20029;-58
2021/01/23 17:50:43;;;;;;;1.80;1.60;;;16.90;33.20;;;;;;8392201;27;20051;-54
2021/01/23 17:54:50;;;;;;;1.90;1.40;;;16.90;33.20;;;;;;8406659;28;20371;-55
2021/01/23 17:58:52;;;;;;;2.20;1.70;;;16.90;33.20;;;;;;8359809;27;20081;-53
2021/01/23 18:02:57;;;;;;;2.33;1.60;;;16.90;33.20;;;;;;8394523;28;20381;-59
2021/01/23 18:06:59;;;;;;;1.83;1.30;;;17.00;33.20;;;;;;8380385;27;20067;-57
2021/01/23 18:11:01;;;;;;;4.03;1.67;;;17.00;33.10;;;;;;8425205;27;20044;-54
2021/01/23 18:15:03;;;;;;;2.13;1.65;;;17.00;33.10;;;;;;8409344;28;20079;-53
2021/01/23 18:19:04;;;;;;;1.52;1.33;;;17.00;32.90;;;;;;8415714;28;20038;-54
2021/01/23 18:23:04;;;;;;;4.93;1.67;;;17.00;32.90;;;;;;8393149;28;20045;-54
2021/01/23 18:27:07;;;;;;;2.70;2.07;;;17.00;32.80;;;;;;8371719;28;20466;-54
2021/01/23 18:31:07;;;;;;;2.30;1.60;;;16.90;32.80;;;;;;8399267;28;20048;-55
2021/01/23 18:35:11;;;;;;;1.83;1.60;;;16.90;33.00;;;;;;8396506;28;20040;-56
2021/01/23 18:39:12;;;;;;;3.00;1.67;;;16.90;32.80;;;;;;8396671;28;20112;-55
2021/01/23 18:43:13;;;;;;;4.23;2.03;;;16.90;32.80;;;;;;8385369;27;20040;-56
2021/01/23 18:47:13;;;;;;;2.47;1.77;;;16.90;32.80;;;;;;8394874;28;20094;-55
2021/01/23 18:51:14;;;;;;;4.07;1.80;;;16.90;32.80;;;;;;8400606;28;20545;-55
2021/01/23 18:55:16;;;;;;;2.87;2.03;;;16.80;32.90;;;;;;8394443;28;20033;-56
2021/01/23 18:59:16;;;;;;;2.95;2.10;;;16.80;32.90;;;;;;8396039;28;20382;-55
2021/01/23 19:03:17;;;;;;;2.17;1.97;;;16.80;32.90;;;;;;8396240;28;20025;-55
2021/01/23 19:07:17;;;;;;;2.43;1.80;;;16.80;32.90;;;;;;8398367;28;20037;-55
2021/01/23 19:11:18;;;;;;;3.33;2.20;;;16.80;33.00;;;;;;8395542;28;20076;-55
2021/01/23 19:15:19;;;;;;;3.17;2.50;;;16.80;33.00;;;;;;8395571;28;20037;-55
2021/01/23 19:19:20;;;;;;;2.97;1.93;;;16.70;33.00;;;;;;8394804;28;20115;-55
2021/01/23 19:23:20;;;;;;;3.63;2.08;;;16.70;33.00;;;;;;8397567;28;20514;-55
2021/01/23 19:27:21;;;;;;;2.73;1.83;;;16.70;33.00;;;;;;8397453;28;20062;-55
2021/01/23 19:31:24;;;;;;;2.50;1.80;;;16.70;33.00;;;;;;8393560;28;20066;-55
2021/01/23 19:35:25;;;;;;;2.15;1.80;;;16.70;33.10;;;;;;8407899;28;20028;-55
2021/01/23 19:39:25;;;;;;;2.47;2.00;;;16.70;33.10;;;;;;8425203;27;20087;-55
2021/01/23 19:43:26;;;;;;;2.60;1.80;;;16.70;33.40;;;;;;8397600;27;20040;-55
2021/01/23 19:47:26;;;;;;;2.77;1.80;;;16.80;33.50;;;;;;8394999;28;20428;-55
2021/01/23 19:51:27;;;;;;;1.90;1.70;;;16.80;33.50;;;;;;8394546;28;20131;-55
2021/01/23 19:55:27;;;;;;;3.97;1.93;;;16.80;33.40;;;;;;8393287;28;20032;-55
2021/01/23 19:59:28;;;;;;;4.07;2.23;;;16.80;33.50;;;;;;8399089;28;20028;-55
2021/01/23 20:03:28;;;;;;;3.07;2.10;;;16.80;33.50;;;;;;8394633;28;20040;-55
2021/01/23 20:07:29;;;;;;;2.60;1.80;;;16.90;33.60;;;;;;8392631;27;20374;-55
2021/01/23 20:11:29;;;;;;;3.57;1.93;;;16.80;33.50;;;;;;8394039;28;20064;-55
2021/01/23 20:15:30;;;;;;;2.50;1.80;;;16.90;33.70;;;;;;8393826;28;20056;-55
2021/01/23 20:19:31;;;;;;;2.70;1.90;;;16.90;33.70;;;;;;8396668;28;20021;-55
2021/01/23 20:23:31;;;;;;;2.87;1.70;;;16.90;33.60;;;;;;8393566;28;20033;-55
2021/01/23 20:27:32;;;;;;;3.40;2.00;;;16.90;33.40;;;;;;8394004;28;20036;-56
2021/01/23 20:31:32;;;;;;;2.77;2.10;;;16.90;33.30;;;;;;8391622;27;20230;-56
2021/01/23 20:35:33;;;;;;;1.80;1.70;;;16.90;33.30;;;;;;8397578;28;20029;-54
2021/01/23 20:39:33;;;;;;;1.93;1.73;;;16.90;33.20;;;;;;8392975;28;20107;-52
2021/01/23 20:43:38;;;;;;;3.53;2.53;;;16.90;33.20;;;;;;8391502;27;20041;-53
2021/01/23 20:47:39;;;;;;;2.75;2.15;;;16.90;33.30;;;;;;8392028;28;20063;-53
2021/01/23 20:51:42;;;;;;;2.13;1.92;;;16.80;33.20;;;;;;8396944;28;20511;-54
2021/01/23 20:55:42;;;;;;;1.77;1.58;;;16.80;33.20;;;;;;8390928;28;20517;-54
2021/01/23 20:59:43;;;;;;;2.50;1.80;;;16.80;33.20;;;;;;8392422;28;20029;-55